createdAt,value
2017-05-22T00:01:24.148Z,80.10
2017-05-22T00:03:52.356Z,80.00
2017-05-22T00:06:20.575Z,79.80
2017-05-22T00:08:48.782Z,80.20
2017-05-22T00:11:17.008Z,80.10
2017-05-22T00:13:45.224Z,80.50
2017-05-22T00:16:13.442Z,80.30
2017-05-22T00:18:41.663Z,80.00
2017-05-22T00:21:09.867Z,80.40
2017-05-22T00:23:38.091Z,80.70
2017-05-22T00:26:06.307Z,81.30
2017-05-22T00:28:34.518Z,81.30
2017-05-22T00:31:02.739Z,81.10
2017-05-22T00:33:30.964Z,81.00
2017-05-22T00:35:59.175Z,81.40
2017-05-22T00:38:27.404Z,81.60
2017-05-22T00:40:55.619Z,81.40
2017-05-22T00:43:24.648Z,81.40
2017-05-22T00:45:52.855Z,81.80
2017-05-22T00:48:21.076Z,81.30
2017-05-22T00:50:49.303Z,81.00
2017-05-22T00:53:17.511Z,80.40
2017-05-22T00:55:45.732Z,80.10
2017-05-22T00:58:13.939Z,80.00
2017-05-22T01:00:42.164Z,80.10
2017-05-22T01:03:10.372Z,79.70
2017-05-22T01:05:38.595Z,80.30
2017-05-22T01:08:06.808Z,81.10
2017-05-22T01:10:35.019Z,82.80
2017-05-22T01:13:03.233Z,83.00
2017-05-22T01:15:31.431Z,82.90
2017-05-22T01:17:59.647Z,82.80
2017-05-22T01:20:27.855Z,82.40
2017-05-22T01:22:56.072Z,82.50
2017-05-22T01:25:24.279Z,82.50
2017-05-22T01:27:52.503Z,83.10
2017-05-22T01:30:20.719Z,82.70
2017-05-22T01:32:48.939Z,82.80
2017-05-22T01:35:17.151Z,82.40
2017-05-22T01:37:45.367Z,80.50
2017-05-22T01:40:13.579Z,80.10
2017-05-22T01:42:41.807Z,81.90
2017-05-22T01:45:10.019Z,82.50
2017-05-22T01:47:38.235Z,82.20
2017-05-22T01:50:06.442Z,81.80
2017-05-22T01:52:34.658Z,80.00
2017-05-22T01:55:02.882Z,79.80
2017-05-22T01:57:31.098Z,80.10
2017-05-22T01:59:59.318Z,80.00
2017-05-22T02:02:27.522Z,80.00
2017-05-22T02:04:55.748Z,79.80
2017-05-22T02:07:23.953Z,79.70
2017-05-22T02:09:52.179Z,79.60
2017-05-22T02:12:20.382Z,81.30
2017-05-22T02:14:48.621Z,81.50
2017-05-22T02:17:16.831Z,81.70
2017-05-22T02:19:45.047Z,82.00
2017-05-22T02:22:13.264Z,81.60
2017-05-22T02:24:41.486Z,81.50
2017-05-22T02:27:09.687Z,81.20
2017-05-22T02:29:37.906Z,81.00
2017-05-22T02:32:06.116Z,81.00
2017-05-22T02:34:34.447Z,80.80
2017-05-22T02:37:02.660Z,80.80
2017-05-22T02:39:30.875Z,80.80
2017-05-22T02:41:59.080Z,80.70
2017-05-22T02:44:27.313Z,81.10
2017-05-22T02:46:56.319Z,81.10
2017-05-22T02:49:24.536Z,81.50
2017-05-22T02:51:52.800Z,82.30
2017-05-22T02:54:21.025Z,82.30
2017-05-22T02:56:49.223Z,82.40
2017-05-22T02:59:17.447Z,83.70
2017-05-22T03:01:45.664Z,82.80
2017-05-22T03:04:13.876Z,82.70
2017-05-22T03:06:42.098Z,83.00
2017-05-22T03:09:10.311Z,83.10
2017-05-22T03:11:38.523Z,83.10
2017-05-22T03:14:06.727Z,83.10
2017-05-22T03:16:34.949Z,83.10
2017-05-22T03:19:03.152Z,82.80
2017-05-22T03:21:31.368Z,82.80
2017-05-22T03:23:59.583Z,81.90
2017-05-22T03:26:27.832Z,81.20
2017-05-22T03:28:56.040Z,81.40
2017-05-22T03:31:24.256Z,81.50
2017-05-22T03:33:52.467Z,81.40
2017-05-22T03:36:20.683Z,81.40
2017-05-22T03:38:48.898Z,82.00
2017-05-22T03:41:17.119Z,82.90
2017-05-22T03:43:45.331Z,83.10
2017-05-22T03:46:13.560Z,83.50
2017-05-22T03:48:41.763Z,84.00
2017-05-22T03:51:10.083Z,83.20
2017-05-22T03:53:38.355Z,82.90
2017-05-22T03:56:06.575Z,82.80
2017-05-22T03:58:34.781Z,82.90
2017-05-22T04:01:02.991Z,82.90
2017-05-22T04:03:32.198Z,82.00
2017-05-22T04:20:26.924Z,82.20
2017-05-22T04:22:55.152Z,81.10
2017-05-22T04:25:23.355Z,82.50
2017-05-22T04:27:51.580Z,82.90
2017-05-22T04:30:19.795Z,82.90
2017-05-22T04:32:48.032Z,81.30
2017-05-22T04:35:16.243Z,81.10
2017-05-22T04:37:44.467Z,80.60
2017-05-22T04:40:12.675Z,80.70
2017-05-22T04:42:40.905Z,80.90
2017-05-22T04:45:09.118Z,81.10
2017-05-22T04:47:37.339Z,80.20
2017-05-22T04:50:06.340Z,79.60
2017-05-22T04:52:34.570Z,79.20
2017-05-22T04:55:02.787Z,77.50
2017-05-22T04:57:31.008Z,78.20
2017-05-22T04:59:59.219Z,76.60
2017-05-22T05:02:27.444Z,76.30
2017-05-22T05:04:55.668Z,77.30
2017-05-22T05:07:23.901Z,77.70
2017-05-22T05:09:52.113Z,77.60
2017-05-22T05:12:20.328Z,79.10
2017-05-22T05:14:48.554Z,76.60
2017-05-22T05:17:16.778Z,76.20
2017-05-22T05:19:44.999Z,75.60
2017-05-22T05:22:13.207Z,75.10
2017-05-22T05:24:41.427Z,74.50
2017-05-22T05:27:10.231Z,74.90
2017-05-22T05:29:38.451Z,74.00
2017-05-22T05:32:06.660Z,73.40
2017-05-22T05:34:34.903Z,72.30
2017-05-22T05:37:03.111Z,71.80
2017-05-22T05:39:31.335Z,72.80
2017-05-22T05:42:00.206Z,72.00
2017-05-22T05:44:28.852Z,71.90
2017-05-22T05:46:57.073Z,71.80
2017-05-22T05:49:25.294Z,72.00
2017-05-22T05:51:53.504Z,71.30
2017-05-22T05:54:21.719Z,70.10
2017-05-22T05:56:49.934Z,70.10
2017-05-22T05:59:18.171Z,69.10
2017-05-22T06:01:46.384Z,67.20
2017-05-22T06:04:14.600Z,65.40
2017-05-22T06:06:46.163Z,65.00
2017-05-22T06:09:14.380Z,62.00
2017-05-22T06:11:42.596Z,59.20
2017-05-22T06:14:10.827Z,58.20
2017-05-22T06:16:39.039Z,59.00
2017-05-22T06:19:07.247Z,58.70
2017-05-22T06:21:35.471Z,58.70
2017-05-22T06:24:03.691Z,59.00
2017-05-22T06:26:31.922Z,59.00
2017-05-22T06:29:00.135Z,59.40
2017-05-22T06:31:28.360Z,57.90
2017-05-22T06:33:55.809Z,57.80
2017-05-22T06:36:24.026Z,57.40
2017-05-22T06:38:52.252Z,58.10
2017-05-22T06:41:20.463Z,58.10
2017-05-22T06:43:48.689Z,59.00
2017-05-22T06:46:16.912Z,58.70
2017-05-22T06:48:45.120Z,59.00
2017-05-22T06:51:13.343Z,60.90
2017-05-22T06:53:41.556Z,61.40
2017-05-22T06:56:09.779Z,62.40
2017-05-22T06:58:38.001Z,62.90
2017-05-22T07:01:06.231Z,61.40
2017-05-22T07:03:34.435Z,61.90
2017-05-22T07:06:02.656Z,61.80
2017-05-22T07:08:30.863Z,61.70
2017-05-22T07:10:59.099Z,59.90
2017-05-22T07:13:27.312Z,57.40
2017-05-22T07:15:55.537Z,57.50
2017-05-22T07:18:23.755Z,56.10
2017-05-22T07:20:51.971Z,52.50
2017-05-22T07:23:20.184Z,53.30
2017-05-22T07:25:48.401Z,51.60
2017-05-22T07:28:16.620Z,50.20
2017-05-22T07:30:44.835Z,48.70
2017-05-22T07:33:13.055Z,49.20
2017-05-22T07:35:41.267Z,45.40
2017-05-22T07:38:09.484Z,42.70
2017-05-22T07:40:37.693Z,41.20
2017-05-22T07:43:05.918Z,41.70
2017-05-22T07:45:34.125Z,40.40
2017-05-22T07:48:02.358Z,40.50
2017-05-22T07:50:30.576Z,38.70
2017-05-22T07:52:59.560Z,39.50
2017-05-22T07:55:27.784Z,40.50
2017-05-22T07:57:56.001Z,39.20
2017-05-22T08:00:24.216Z,38.10
2017-05-22T08:02:52.443Z,37.70
2017-05-22T08:05:20.661Z,38.40
2017-05-22T08:07:49.731Z,37.10
2017-05-22T08:10:17.947Z,36.20
2017-05-22T08:12:46.169Z,37.50
2017-05-22T08:15:14.391Z,37.10
2017-05-22T08:17:42.617Z,38.20
2017-05-22T08:20:10.827Z,39.80
2017-05-22T08:22:39.050Z,37.80
2017-05-22T08:25:07.260Z,36.80
2017-05-22T08:27:35.485Z,37.70
2017-05-22T08:30:03.703Z,37.70
2017-05-22T08:32:31.949Z,38.30
2017-05-22T08:35:00.152Z,39.50
2017-05-22T08:37:28.367Z,39.30
2017-05-22T08:39:56.584Z,38.00
2017-05-22T08:42:24.791Z,39.80
2017-05-22T08:44:53.040Z,39.20
2017-05-22T08:47:21.243Z,39.70
2017-05-22T08:49:49.459Z,38.80
2017-05-22T08:52:17.667Z,37.80
2017-05-22T08:54:45.886Z,37.40
2017-05-22T08:57:14.096Z,39.60
2017-05-22T08:59:42.319Z,39.80
2017-05-22T09:02:10.544Z,40.30
2017-05-22T09:04:38.771Z,38.50
2017-05-22T09:07:06.983Z,39.70
2017-05-22T09:09:35.200Z,38.70
2017-05-22T09:12:03.422Z,41.20
2017-05-22T09:14:31.650Z,40.20
2017-05-22T09:16:59.864Z,40.00
2017-05-22T09:19:28.092Z,38.60
2017-05-22T09:21:56.295Z,40.90
2017-05-22T09:24:24.515Z,41.40
2017-05-22T09:26:52.723Z,40.70
2017-05-22T09:29:20.955Z,40.80
2017-05-22T09:31:49.171Z,40.80
2017-05-22T09:34:17.402Z,40.30
2017-05-22T09:36:45.611Z,40.90
2017-05-22T09:39:13.815Z,41.20
2017-05-22T09:41:42.043Z,40.70
2017-05-22T09:44:10.260Z,40.80
2017-05-22T09:46:38.495Z,42.00
2017-05-22T09:49:06.704Z,41.90
2017-05-22T09:51:34.923Z,40.30
2017-05-22T09:54:03.136Z,41.90
2017-05-22T09:56:31.375Z,40.80
2017-05-22T09:58:59.575Z,40.40
2017-05-22T10:01:27.803Z,43.70
2017-05-22T10:03:56.012Z,41.70
2017-05-22T10:06:24.235Z,39.10
2017-05-22T10:08:52.451Z,40.10
2017-05-22T10:11:20.684Z,39.20
2017-05-22T10:13:48.899Z,40.90
2017-05-22T10:16:17.120Z,42.90
2017-05-22T10:18:45.332Z,40.30
2017-05-22T10:21:13.555Z,39.80
2017-05-22T10:23:41.771Z,40.00
2017-05-22T10:26:10.007Z,40.70
2017-05-22T10:28:38.219Z,43.30
2017-05-22T10:31:06.439Z,38.70
2017-05-22T10:33:34.647Z,40.10
2017-05-22T10:36:02.879Z,35.10
2017-05-22T10:38:31.103Z,37.70
2017-05-22T10:40:59.331Z,38.50
2017-05-22T10:43:27.536Z,40.00
2017-05-22T10:45:55.758Z,40.00
2017-05-22T10:48:23.981Z,37.70
2017-05-22T10:50:52.190Z,38.00
2017-05-22T10:53:20.420Z,36.90
2017-05-22T10:55:48.627Z,35.40
2017-05-22T10:58:16.855Z,38.80
2017-05-22T11:00:45.059Z,34.30
2017-05-22T11:03:13.281Z,37.70
2017-05-22T11:05:41.495Z,37.10
2017-05-22T11:08:09.719Z,37.00
2017-05-22T11:10:37.935Z,35.40
2017-05-22T11:13:06.158Z,39.30
2017-05-22T11:15:34.375Z,36.10
2017-05-22T11:18:02.599Z,34.30
2017-05-22T11:20:30.823Z,34.40
2017-05-22T11:22:59.051Z,35.40
2017-05-22T11:25:27.261Z,33.80
2017-05-22T11:27:55.483Z,35.30
2017-05-22T11:30:23.691Z,34.90
2017-05-22T11:32:51.915Z,33.40
2017-05-22T11:35:20.135Z,34.10
2017-05-22T11:37:48.367Z,35.60
2017-05-22T11:40:16.579Z,34.70
2017-05-22T11:42:44.804Z,33.50
2017-05-22T11:45:13.019Z,35.60
2017-05-22T11:47:41.249Z,33.50
2017-05-22T11:50:09.456Z,33.80
2017-05-22T11:52:37.704Z,31.60
2017-05-22T11:55:05.915Z,34.70
2017-05-22T11:57:34.149Z,36.90
2017-05-22T12:00:02.375Z,33.30
2017-05-22T12:02:30.595Z,32.30
2017-05-22T12:04:58.816Z,31.80
2017-05-22T12:07:27.033Z,34.50
2017-05-22T12:09:55.256Z,32.70
2017-05-22T12:12:23.476Z,32.80
2017-05-22T12:14:51.703Z,32.10
2017-05-22T12:17:19.907Z,30.80
2017-05-22T12:19:48.132Z,34.20
2017-05-22T12:22:16.357Z,34.40
2017-05-22T12:24:44.584Z,30.00
2017-05-22T12:27:12.797Z,31.20
2017-05-22T12:29:41.024Z,29.50
2017-05-22T12:32:09.230Z,31.30
2017-05-22T12:34:37.466Z,33.00
2017-05-22T12:37:05.702Z,32.80
2017-05-22T12:39:33.928Z,33.20
2017-05-22T12:42:02.135Z,33.40
2017-05-22T12:44:30.365Z,33.90
2017-05-22T12:46:58.579Z,33.40
2017-05-22T12:49:26.815Z,34.10
2017-05-22T12:51:55.032Z,33.70
2017-05-22T12:54:23.247Z,33.50
2017-05-22T12:56:51.471Z,32.90
2017-05-22T12:59:19.716Z,33.30
2017-05-22T13:01:47.928Z,35.50
2017-05-22T13:04:16.141Z,36.00
2017-05-22T13:06:44.360Z,35.20
2017-05-22T13:09:12.580Z,34.10
2017-05-22T13:11:40.804Z,35.00
2017-05-22T13:14:09.016Z,34.80
2017-05-22T13:16:37.543Z,34.90
2017-05-22T13:19:05.764Z,33.60
2017-05-22T13:21:33.979Z,33.40
2017-05-22T13:24:02.210Z,33.80
2017-05-22T13:26:30.449Z,35.20
2017-05-22T13:28:58.659Z,34.60
2017-05-22T13:31:26.883Z,34.20
2017-05-22T13:33:55.092Z,33.50
2017-05-22T13:36:23.326Z,33.40
2017-05-22T13:38:51.531Z,33.40
2017-05-22T13:41:19.759Z,33.10
2017-05-22T13:43:47.979Z,33.60
2017-05-22T13:46:16.192Z,33.60
2017-05-22T13:48:44.420Z,31.20
2017-05-22T13:51:12.640Z,32.00
2017-05-22T13:53:40.851Z,32.30
2017-05-22T13:56:09.067Z,32.30
2017-05-22T13:58:37.284Z,32.30
2017-05-22T14:01:05.516Z,33.50
2017-05-22T14:03:33.741Z,34.10
2017-05-22T14:06:01.983Z,35.30
2017-05-22T14:08:30.193Z,37.80
2017-05-22T14:10:58.697Z,38.00
2017-05-22T14:13:26.924Z,35.00
2017-05-22T14:15:55.147Z,36.00
2017-05-22T14:18:23.384Z,33.30
2017-05-22T14:20:51.602Z,32.40
2017-05-22T14:23:19.824Z,33.60
2017-05-22T14:25:48.040Z,32.90
2017-05-22T14:28:16.272Z,32.50
2017-05-22T14:30:44.495Z,32.90
2017-05-22T14:33:12.723Z,33.20
2017-05-22T14:35:40.931Z,31.70
2017-05-22T14:38:09.160Z,32.90
2017-05-22T14:40:37.382Z,35.30
2017-05-22T14:43:05.595Z,37.60
2017-05-22T14:45:33.811Z,35.20
2017-05-22T14:48:02.043Z,34.80
2017-05-22T14:50:30.263Z,37.00
2017-05-22T14:52:58.633Z,36.50
2017-05-22T14:55:26.846Z,37.60
2017-05-22T14:57:59.004Z,38.10
2017-05-22T15:00:27.216Z,38.50
2017-05-22T15:02:55.443Z,40.50
2017-05-22T15:05:23.656Z,40.00
2017-05-22T15:07:51.885Z,35.90
2017-05-22T15:10:20.092Z,38.40
2017-05-22T15:12:48.315Z,38.50
2017-05-22T15:15:16.532Z,38.50
2017-05-22T15:17:44.753Z,39.00
2017-05-22T15:20:12.975Z,38.10
2017-05-22T15:22:41.194Z,36.60
2017-05-22T15:25:09.420Z,37.40
2017-05-22T15:27:37.627Z,38.20
2017-05-22T15:30:05.861Z,36.80
2017-05-22T15:32:34.092Z,35.60
2017-05-22T15:35:02.318Z,35.10
2017-05-22T15:37:30.530Z,36.40
2017-05-22T15:39:58.751Z,36.30
2017-05-22T15:42:26.969Z,35.40
2017-05-22T15:44:55.196Z,36.20
2017-05-22T15:47:23.409Z,35.70
2017-05-22T15:49:51.632Z,37.10
2017-05-22T15:52:19.855Z,37.20
2017-05-22T15:54:48.084Z,34.20
2017-05-22T15:57:16.312Z,34.80
2017-05-22T16:02:39.359Z,33.60
2017-05-22T16:05:16.827Z,33.70
2017-05-22T16:07:45.055Z,34.80
2017-05-22T16:10:13.279Z,34.10
2017-05-22T16:12:41.497Z,33.80
2017-05-22T16:15:09.723Z,32.10
2017-05-22T16:17:37.927Z,32.30
2017-05-22T16:20:06.147Z,31.30
2017-05-22T16:22:34.367Z,31.50
2017-05-22T16:25:02.603Z,30.00
2017-05-22T16:27:31.510Z,30.80
2017-05-22T16:29:59.740Z,30.00
2017-05-22T16:32:27.943Z,30.10
2017-05-22T16:34:56.213Z,30.00
2017-05-22T16:37:24.372Z,30.10
2017-05-22T16:39:52.587Z,30.10
2017-05-22T16:42:20.819Z,30.90
2017-05-22T16:44:49.039Z,31.40
2017-05-22T16:47:17.270Z,33.50
2017-05-22T16:49:45.476Z,33.30
2017-05-22T16:52:13.708Z,37.20
2017-05-22T16:54:43.282Z,34.20
2017-05-22T17:28:57.781Z,44.30
2017-05-22T17:31:26.021Z,44.20
2017-05-22T17:33:54.235Z,42.20
2017-05-22T17:36:22.455Z,42.60
2017-05-22T17:38:49.917Z,42.60
2017-05-22T17:41:18.126Z,42.30
2017-05-22T17:43:46.347Z,41.70
2017-05-22T17:46:15.406Z,42.30
2017-05-22T17:48:43.587Z,43.60
2017-05-22T17:51:11.812Z,43.20
2017-05-22T17:53:40.029Z,43.10
2017-05-22T17:56:08.240Z,42.80
2017-05-22T17:58:36.459Z,43.60
2017-05-22T18:01:04.671Z,45.10
2017-05-22T18:03:32.894Z,45.30
2017-05-22T18:06:01.107Z,51.70
2017-05-22T18:08:29.326Z,53.70
2017-05-22T18:10:57.547Z,54.50
2017-05-22T18:13:25.771Z,56.10
2017-05-22T18:15:53.987Z,57.40
2017-05-22T18:18:22.212Z,57.50
2017-05-22T18:20:50.415Z,54.70
2017-05-22T18:23:18.645Z,55.60
2017-05-22T18:25:46.863Z,54.90
2017-05-22T18:28:15.874Z,54.80
2017-05-22T18:30:44.091Z,53.50
2017-05-22T18:33:12.923Z,49.40
2017-05-22T18:35:41.133Z,50.80
2017-05-22T18:38:09.349Z,51.80
2017-05-22T18:40:37.560Z,53.10
2017-05-22T18:43:05.779Z,54.90
2017-05-22T18:45:33.994Z,53.40
2017-05-22T18:48:02.220Z,55.80
2017-05-22T18:50:30.565Z,54.40
2017-05-22T18:52:58.831Z,56.30
2017-05-22T18:55:27.087Z,55.50
2017-05-22T18:57:55.297Z,58.00
2017-05-22T19:00:23.658Z,60.50
